sensor_id;sensor_type;location;lat;lon;timestamp;P1;durP1;ratioP1;P2;durP2;ratioP2
39740;SDS011;25426;53.478;10.190;2023-06-10T00:01:03;10.77;;;5.53;;
39740;SDS011;25426;53.478;10.190;2023-06-10T00:03:34;9.10;;;5.87;;
39740;SDS011;25426;53.478;10.190;2023-06-10T00:06:06;8.60;;;5.70;;
39740;SDS011;25426;53.478;10.190;2023-06-10T00:08:37;9.53;;;5.63;;
39740;SDS011;25426;53.478;10.190;2023-06-10T00:11:09;9.55;;;6.13;;
39740;SDS011;25426;53.478;10.190;2023-06-10T00:13:40;10.07;;;5.93;;
39740;SDS011;25426;53.478;10.190;2023-06-10T00:16:11;11.40;;;5.50;;
39740;SDS011;25426;53.478;10.190;2023-06-10T00:18:42;10.10;;;5.93;;
39740;SDS011;25426;53.478;10.190;2023-06-10T00:21:14;8.60;;;5.53;;
39740;SDS011;25426;53.478;10.190;2023-06-10T00:23:45;8.52;;;5.35;;
39740;SDS011;25426;53.478;10.190;2023-06-10T00:26:16;10.45;;;5.20;;
39740;SDS011;25426;53.478;10.190;2023-06-10T00:28:49;11.10;;;5.90;;
39740;SDS011;25426;53.478;10.190;2023-06-10T00:31:20;14.70;;;5.78;;
39740;SDS011;25426;53.478;10.190;2023-06-10T00:33:51;9.67;;;5.17;;
39740;SDS011;25426;53.478;10.190;2023-06-10T00:36:22;11.45;;;5.90;;
39740;SDS011;25426;53.478;10.190;2023-06-10T00:38:53;7.40;;;5.10;;
39740;SDS011;25426;53.478;10.190;2023-06-10T00:41:24;11.55;;;6.15;;
39740;SDS011;25426;53.478;10.190;2023-06-10T00:43:58;8.88;;;5.32;;
39740;SDS011;25426;53.478;10.190;2023-06-10T00:46:29;9.37;;;5.60;;
39740;SDS011;25426;53.478;10.190;2023-06-10T00:49:02;7.72;;;5.28;;
39740;SDS011;25426;53.478;10.190;2023-06-10T00:51:34;10.50;;;6.05;;
39740;SDS011;25426;53.478;10.190;2023-06-10T00:54:06;8.75;;;5.38;;
39740;SDS011;25426;53.478;10.190;2023-06-10T00:56:37;9.32;;;5.68;;
39740;SDS011;25426;53.478;10.190;2023-06-10T00:59:08;10.77;;;6.22;;
39740;SDS011;25426;53.478;10.190;2023-06-10T01:01:40;9.38;;;5.28;;
39740;SDS011;25426;53.478;10.190;2023-06-10T01:04:13;9.30;;;4.80;;
39740;SDS011;25426;53.478;10.190;2023-06-10T01:06:51;8.90;;;4.88;;
39740;SDS011;25426;53.478;10.190;2023-06-10T01:12:43;11.50;;;6.25;;
39740;SDS011;25426;53.478;10.190;2023-06-10T01:15:24;9.70;;;5.57;;
39740;SDS011;25426;53.478;10.190;2023-06-10T01:17:59;9.23;;;5.30;;
39740;SDS011;25426;53.478;10.190;2023-06-10T01:20:34;9.98;;;5.47;;
39740;SDS011;25426;53.478;10.190;2023-06-10T01:23:10;9.60;;;5.38;;
39740;SDS011;25426;53.478;10.190;2023-06-10T01:25:42;10.45;;;5.30;;
39740;SDS011;25426;53.478;10.190;2023-06-10T01:28:38;8.03;;;5.10;;
39740;SDS011;25426;53.478;10.190;2023-06-10T01:31:28;8.27;;;5.27;;
39740;SDS011;25426;53.478;10.190;2023-06-10T01:34:25;8.43;;;4.93;;
39740;SDS011;25426;53.478;10.190;2023-06-10T01:36:57;8.60;;;5.45;;
39740;SDS011;25426;53.478;10.190;2023-06-10T01:39:29;10.38;;;4.95;;
39740;SDS011;25426;53.478;10.190;2023-06-10T01:42:00;8.65;;;4.95;;
39740;SDS011;25426;53.478;10.190;2023-06-10T01:44:34;6.22;;;4.47;;
39740;SDS011;25426;53.478;10.190;2023-06-10T01:47:05;8.23;;;4.00;;
39740;SDS011;25426;53.478;10.190;2023-06-10T01:49:36;7.38;;;3.58;;
39740;SDS011;25426;53.478;10.190;2023-06-10T01:52:07;10.30;;;4.38;;
39740;SDS011;25426;53.478;10.190;2023-06-10T01:54:38;7.75;;;4.32;;
39740;SDS011;25426;53.478;10.190;2023-06-10T01:57:10;5.82;;;4.53;;
39740;SDS011;25426;53.478;10.190;2023-06-10T01:59:41;9.57;;;5.10;;
39740;SDS011;25426;53.478;10.190;2023-06-10T02:02:14;9.60;;;4.93;;
39740;SDS011;25426;53.478;10.190;2023-06-10T02:04:45;9.68;;;4.85;;
39740;SDS011;25426;53.478;10.190;2023-06-10T02:07:16;9.60;;;4.97;;
39740;SDS011;25426;53.478;10.190;2023-06-10T02:09:48;6.97;;;4.38;;
39740;SDS011;25426;53.478;10.190;2023-06-10T02:12:19;10.50;;;5.45;;
39740;SDS011;25426;53.478;10.190;2023-06-10T02:14:50;10.50;;;4.80;;
39740;SDS011;25426;53.478;10.190;2023-06-10T02:17:21;8.13;;;4.65;;
39740;SDS011;25426;53.478;10.190;2023-06-10T02:19:53;8.30;;;4.85;;
39740;SDS011;25426;53.478;10.190;2023-06-10T02:22:25;9.23;;;4.50;;
39740;SDS011;25426;53.478;10.190;2023-06-10T02:24:56;9.07;;;4.53;;
39740;SDS011;25426;53.478;10.190;2023-06-10T02:27:28;10.45;;;4.30;;
39740;SDS011;25426;53.478;10.190;2023-06-10T02:29:59;6.30;;;4.20;;
39740;SDS011;25426;53.478;10.190;2023-06-10T02:32:30;8.47;;;4.70;;
39740;SDS011;25426;53.478;10.190;2023-06-10T02:35:02;9.93;;;4.90;;
39740;SDS011;25426;53.478;10.190;2023-06-10T02:37:34;8.40;;;4.70;;
39740;SDS011;25426;53.478;10.190;2023-06-10T02:40:05;8.10;;;4.38;;
39740;SDS011;25426;53.478;10.190;2023-06-10T02:42:37;7.60;;;4.20;;
39740;SDS011;25426;53.478;10.190;2023-06-10T02:45:08;9.02;;;4.55;;
39740;SDS011;25426;53.478;10.190;2023-06-10T02:47:44;9.48;;;4.47;;
39740;SDS011;25426;53.478;10.190;2023-06-10T02:50:16;8.23;;;4.10;;
39740;SDS011;25426;53.478;10.190;2023-06-10T02:52:57;8.57;;;4.38;;
39740;SDS011;25426;53.478;10.190;2023-06-10T02:55:28;9.77;;;4.20;;
39740;SDS011;25426;53.478;10.190;2023-06-10T02:58:04;9.48;;;4.47;;
39740;SDS011;25426;53.478;10.190;2023-06-10T03:00:37;8.70;;;3.95;;
39740;SDS011;25426;53.478;10.190;2023-06-10T03:03:11;9.07;;;4.22;;
39740;SDS011;25426;53.478;10.190;2023-06-10T03:05:51;8.35;;;4.18;;
39740;SDS011;25426;53.478;10.190;2023-06-10T03:08:25;8.23;;;3.80;;
39740;SDS011;25426;53.478;10.190;2023-06-10T03:10:56;10.70;;;4.40;;
39740;SDS011;25426;53.478;10.190;2023-06-10T03:13:27;8.32;;;4.25;;
39740;SDS011;25426;53.478;10.190;2023-06-10T03:15:58;6.80;;;3.92;;
39740;SDS011;25426;53.478;10.190;2023-06-10T03:18:30;7.57;;;4.10;;
39740;SDS011;25426;53.478;10.190;2023-06-10T03:21:01;10.38;;;3.97;;
39740;SDS011;25426;53.478;10.190;2023-06-10T03:23:33;7.07;;;3.70;;
39740;SDS011;25426;53.478;10.190;2023-06-10T03:26:05;9.35;;;3.95;;
39740;SDS011;25426;53.478;10.190;2023-06-10T03:28:38;7.10;;;3.43;;
39740;SDS011;25426;53.478;10.190;2023-06-10T03:31:09;8.80;;;4.47;;
39740;SDS011;25426;53.478;10.190;2023-06-10T03:33:41;9.43;;;3.85;;
39740;SDS011;25426;53.478;10.190;2023-06-10T03:36:12;8.93;;;3.67;;
39740;SDS011;25426;53.478;10.190;2023-06-10T03:38:43;8.98;;;3.95;;
39740;SDS011;25426;53.478;10.190;2023-06-10T03:41:14;7.30;;;3.40;;
39740;SDS011;25426;53.478;10.190;2023-06-10T03:43:47;7.60;;;3.33;;
39740;SDS011;25426;53.478;10.190;2023-06-10T03:46:20;10.00;;;3.70;;
39740;SDS011;25426;53.478;10.190;2023-06-10T03:48:51;8.70;;;3.75;;
39740;SDS011;25426;53.478;10.190;2023-06-10T03:51:23;6.87;;;3.67;;
39740;SDS011;25426;53.478;10.190;2023-06-10T03:53:54;8.23;;;3.92;;
39740;SDS011;25426;53.478;10.190;2023-06-10T03:56:25;8.77;;;3.70;;
39740;SDS011;25426;53.478;10.190;2023-06-10T03:58:57;7.63;;;3.60;;
39740;SDS011;25426;53.478;10.190;2023-06-10T04:01:28;7.78;;;3.60;;
39740;SDS011;25426;53.478;10.190;2023-06-10T04:04:01;8.55;;;3.72;;
39740;SDS011;25426;53.478;10.190;2023-06-10T04:06:33;9.82;;;3.50;;
39740;SDS011;25426;53.478;10.190;2023-06-10T04:09:03;7.40;;;3.30;;
39740;SDS011;25426;53.478;10.190;2023-06-10T04:11:35;9.13;;;3.97;;
39740;SDS011;25426;53.478;10.190;2023-06-10T04:14:06;8.15;;;3.53;;
39740;SDS011;25426;53.478;10.190;2023-06-10T04:16:39;7.43;;;3.30;;
39740;SDS011;25426;53.478;10.190;2023-06-10T04:19:10;6.75;;;2.97;;
39740;SDS011;25426;53.478;10.190;2023-06-10T04:21:42;7.38;;;3.28;;
39740;SDS011;25426;53.478;10.190;2023-06-10T04:24:13;6.72;;;3.05;;
39740;SDS011;25426;53.478;10.190;2023-06-10T04:26:46;6.82;;;3.00;;
39740;SDS011;25426;53.478;10.190;2023-06-10T04:29:18;7.78;;;2.80;;
39740;SDS011;25426;53.478;10.190;2023-06-10T04:31:49;6.75;;;3.38;;
39740;SDS011;25426;53.478;10.190;2023-06-10T04:34:21;7.63;;;2.70;;
39740;SDS011;25426;53.478;10.190;2023-06-10T04:36:52;7.00;;;2.80;;
39740;SDS011;25426;53.478;10.190;2023-06-10T04:39:24;6.25;;;2.78;;
39740;SDS011;25426;53.478;10.190;2023-06-10T04:41:56;6.78;;;3.17;;
39740;SDS011;25426;53.478;10.190;2023-06-10T04:44:27;5.28;;;2.63;;
39740;SDS011;25426;53.478;10.190;2023-06-10T04:46:59;8.23;;;3.20;;
39740;SDS011;25426;53.478;10.190;2023-06-10T04:49:31;7.50;;;2.83;;
39740;SDS011;25426;53.478;10.190;2023-06-10T04:52:02;9.93;;;3.10;;
39740;SDS011;25426;53.478;10.190;2023-06-10T04:54:38;6.65;;;3.00;;
39740;SDS011;25426;53.478;10.190;2023-06-10T04:57:09;7.28;;;3.10;;
39740;SDS011;25426;53.478;10.190;2023-06-10T04:59:41;4.77;;;2.13;;
39740;SDS011;25426;53.478;10.190;2023-06-10T05:02:12;9.52;;;3.30;;
39740;SDS011;25426;53.478;10.190;2023-06-10T05:04:43;5.72;;;2.55;;
39740;SDS011;25426;53.478;10.190;2023-06-10T05:07:14;5.50;;;2.87;;
39740;SDS011;25426;53.478;10.190;2023-06-10T05:09:45;6.35;;;2.58;;
39740;SDS011;25426;53.478;10.190;2023-06-10T05:12:16;6.50;;;2.50;;
39740;SDS011;25426;53.478;10.190;2023-06-10T05:14:47;5.68;;;2.67;;
39740;SDS011;25426;53.478;10.190;2023-06-10T05:17:18;5.90;;;2.67;;
39740;SDS011;25426;53.478;10.190;2023-06-10T05:19:49;5.32;;;2.47;;
39740;SDS011;25426;53.478;10.190;2023-06-10T05:22:20;5.93;;;2.40;;
39740;SDS011;25426;53.478;10.190;2023-06-10T05:24:51;6.63;;;2.83;;
39740;SDS011;25426;53.478;10.190;2023-06-10T05:27:22;4.50;;;2.03;;
39740;SDS011;25426;53.478;10.190;2023-06-10T05:29:54;6.00;;;2.42;;
39740;SDS011;25426;53.478;10.190;2023-06-10T05:32:25;6.37;;;2.87;;
39740;SDS011;25426;53.478;10.190;2023-06-10T05:34:56;5.25;;;2.50;;
39740;SDS011;25426;53.478;10.190;2023-06-10T05:37:27;7.20;;;2.70;;
39740;SDS011;25426;53.478;10.190;2023-06-10T05:39:58;6.22;;;3.00;;
39740;SDS011;25426;53.478;10.190;2023-06-10T05:42:28;6.00;;;2.77;;
39740;SDS011;25426;53.478;10.190;2023-06-10T05:44:59;9.60;;;3.47;;
39740;SDS011;25426;53.478;10.190;2023-06-10T05:47:31;5.50;;;2.70;;
39740;SDS011;25426;53.478;10.190;2023-06-10T05:50:02;8.50;;;2.47;;
39740;SDS011;25426;53.478;10.190;2023-06-10T05:52:37;6.20;;;2.60;;
39740;SDS011;25426;53.478;10.190;2023-06-10T05:55:10;7.55;;;2.72;;
39740;SDS011;25426;53.478;10.190;2023-06-10T05:57:41;8.77;;;3.03;;
39740;SDS011;25426;53.478;10.190;2023-06-10T06:00:12;6.93;;;2.70;;
39740;SDS011;25426;53.478;10.190;2023-06-10T06:02:45;5.50;;;2.50;;
39740;SDS011;25426;53.478;10.190;2023-06-10T06:05:16;6.93;;;2.90;;
39740;SDS011;25426;53.478;10.190;2023-06-10T06:07:47;6.45;;;2.90;;
39740;SDS011;25426;53.478;10.190;2023-06-10T06:10:18;6.45;;;2.75;;
39740;SDS011;25426;53.478;10.190;2023-06-10T06:12:49;9.97;;;2.73;;
39740;SDS011;25426;53.478;10.190;2023-06-10T06:15:20;8.80;;;2.75;;
39740;SDS011;25426;53.478;10.190;2023-06-10T06:17:51;7.20;;;2.90;;
39740;SDS011;25426;53.478;10.190;2023-06-10T06:20:22;5.97;;;2.65;;
39740;SDS011;25426;53.478;10.190;2023-06-10T06:22:54;6.15;;;2.45;;
39740;SDS011;25426;53.478;10.190;2023-06-10T06:25:25;6.60;;;3.10;;
39740;SDS011;25426;53.478;10.190;2023-06-10T06:27:56;6.25;;;2.72;;
39740;SDS011;25426;53.478;10.190;2023-06-10T06:30:27;6.85;;;3.08;;
39740;SDS011;25426;53.478;10.190;2023-06-10T06:32:58;7.35;;;2.67;;
39740;SDS011;25426;53.478;10.190;2023-06-10T06:35:35;6.78;;;3.05;;
39740;SDS011;25426;53.478;10.190;2023-06-10T06:38:08;7.00;;;2.72;;
39740;SDS011;25426;53.478;10.190;2023-06-10T06:40:39;6.93;;;2.85;;
39740;SDS011;25426;53.478;10.190;2023-06-10T06:43:10;5.63;;;2.70;;
39740;SDS011;25426;53.478;10.190;2023-06-10T06:45:59;5.70;;;2.38;;
39740;SDS011;25426;53.478;10.190;2023-06-10T06:48:30;5.50;;;2.77;;
39740;SDS011;25426;53.478;10.190;2023-06-10T06:51:01;7.18;;;2.90;;
39740;SDS011;25426;53.478;10.190;2023-06-10T06:53:32;6.30;;;2.60;;
39740;SDS011;25426;53.478;10.190;2023-06-10T06:56:05;5.68;;;2.80;;
39740;SDS011;25426;53.478;10.190;2023-06-10T06:58:36;5.70;;;2.72;;
39740;SDS011;25426;53.478;10.190;2023-06-10T07:01:07;7.05;;;2.75;;
39740;SDS011;25426;53.478;10.190;2023-06-10T07:03:39;6.20;;;2.70;;
39740;SDS011;25426;53.478;10.190;2023-06-10T07:06:12;5.95;;;2.90;;
39740;SDS011;25426;53.478;10.190;2023-06-10T07:08:43;6.15;;;3.00;;
39740;SDS011;25426;53.478;10.190;2023-06-10T07:11:14;5.60;;;2.90;;
39740;SDS011;25426;53.478;10.190;2023-06-10T07:13:45;7.38;;;2.85;;
39740;SDS011;25426;53.478;10.190;2023-06-10T07:16:16;5.70;;;2.63;;
39740;SDS011;25426;53.478;10.190;2023-06-10T07:18:47;5.63;;;2.60;;
39740;SDS011;25426;53.478;10.190;2023-06-10T07:21:18;5.37;;;2.73;;
39740;SDS011;25426;53.478;10.190;2023-06-10T07:23:49;6.57;;;2.70;;
39740;SDS011;25426;53.478;10.190;2023-06-10T07:26:23;7.83;;;2.97;;
39740;SDS011;25426;53.478;10.190;2023-06-10T07:28:55;6.20;;;2.70;;
39740;SDS011;25426;53.478;10.190;2023-06-10T07:31:26;7.53;;;2.77;;
39740;SDS011;25426;53.478;10.190;2023-06-10T07:33:57;6.85;;;2.85;;
39740;SDS011;25426;53.478;10.190;2023-06-10T07:36:28;4.75;;;2.38;;
39740;SDS011;25426;53.478;10.190;2023-06-10T07:38:59;6.95;;;2.65;;
39740;SDS011;25426;53.478;10.190;2023-06-10T07:41:30;7.13;;;3.17;;
39740;SDS011;25426;53.478;10.190;2023-06-10T07:44:01;9.73;;;3.13;;
39740;SDS011;25426;53.478;10.190;2023-06-10T07:46:33;6.53;;;3.00;;
39740;SDS011;25426;53.478;10.190;2023-06-10T07:49:04;6.60;;;2.97;;
39740;SDS011;25426;53.478;10.190;2023-06-10T07:51:35;7.68;;;3.10;;
39740;SDS011;25426;53.478;10.190;2023-06-10T07:54:06;8.90;;;3.50;;
39740;SDS011;25426;53.478;10.190;2023-06-10T07:56:38;6.70;;;3.47;;
39740;SDS011;25426;53.478;10.190;2023-06-10T07:59:09;6.80;;;2.97;;
39740;SDS011;25426;53.478;10.190;2023-06-10T08:01:40;5.55;;;3.22;;
39740;SDS011;25426;53.478;10.190;2023-06-10T08:04:12;5.53;;;2.80;;
39740;SDS011;25426;53.478;10.190;2023-06-10T08:06:44;5.47;;;2.90;;
39740;SDS011;25426;53.478;10.190;2023-06-10T08:09:14;5.53;;;2.92;;
39740;SDS011;25426;53.478;10.190;2023-06-10T08:11:46;8.70;;;3.30;;
39740;SDS011;25426;53.478;10.190;2023-06-10T08:14:17;5.40;;;2.93;;
39740;SDS011;25426;53.478;10.190;2023-06-10T08:16:48;6.95;;;3.42;;
39740;SDS011;25426;53.478;10.190;2023-06-10T08:19:19;4.95;;;2.85;;
39740;SDS011;25426;53.478;10.190;2023-06-10T08:21:50;7.07;;;2.67;;
39740;SDS011;25426;53.478;10.190;2023-06-10T08:24:21;8.20;;;3.33;;
39740;SDS011;25426;53.478;10.190;2023-06-10T08:26:52;5.88;;;3.25;;
39740;SDS011;25426;53.478;10.190;2023-06-10T08:29:23;7.63;;;3.15;;
39740;SDS011;25426;53.478;10.190;2023-06-10T08:31:55;8.70;;;3.13;;
39740;SDS011;25426;53.478;10.190;2023-06-10T08:34:26;5.65;;;2.70;;
39740;SDS011;25426;53.478;10.190;2023-06-10T08:36:56;5.47;;;3.00;;
39740;SDS011;25426;53.478;10.190;2023-06-10T08:39:27;8.02;;;3.45;;
39740;SDS011;25426;53.478;10.190;2023-06-10T08:42:14;5.97;;;2.90;;
39740;SDS011;25426;53.478;10.190;2023-06-10T08:45:16;5.78;;;3.08;;
39740;SDS011;25426;53.478;10.190;2023-06-10T08:47:50;7.50;;;2.90;;
39740;SDS011;25426;53.478;10.190;2023-06-10T08:50:22;7.60;;;3.10;;
39740;SDS011;25426;53.478;10.190;2023-06-10T08:52:54;6.35;;;3.28;;
39740;SDS011;25426;53.478;10.190;2023-06-10T08:55:32;5.70;;;2.85;;
39740;SDS011;25426;53.478;10.190;2023-06-10T08:58:07;7.17;;;3.17;;
39740;SDS011;25426;53.478;10.190;2023-06-10T09:00:38;6.72;;;3.03;;
39740;SDS011;25426;53.478;10.190;2023-06-10T09:03:09;7.18;;;3.40;;
39740;SDS011;25426;53.478;10.190;2023-06-10T09:05:40;4.97;;;2.97;;
39740;SDS011;25426;53.478;10.190;2023-06-10T09:08:11;7.37;;;3.07;;
39740;SDS011;25426;53.478;10.190;2023-06-10T09:10:42;8.82;;;3.78;;
39740;SDS011;25426;53.478;10.190;2023-06-10T09:13:13;5.35;;;3.38;;
39740;SDS011;25426;53.478;10.190;2023-06-10T09:15:45;6.78;;;3.60;;
39740;SDS011;25426;53.478;10.190;2023-06-10T09:18:17;7.03;;;3.17;;
39740;SDS011;25426;53.478;10.190;2023-06-10T09:20:48;5.82;;;2.90;;
39740;SDS011;25426;53.478;10.190;2023-06-10T09:23:19;5.18;;;3.30;;
39740;SDS011;25426;53.478;10.190;2023-06-10T09:25:55;6.22;;;3.33;;
39740;SDS011;25426;53.478;10.190;2023-06-10T09:28:30;7.47;;;3.13;;
39740;SDS011;25426;53.478;10.190;2023-06-10T09:31:04;4.47;;;3.10;;
39740;SDS011;25426;53.478;10.190;2023-06-10T09:33:37;7.57;;;3.47;;
39740;SDS011;25426;53.478;10.190;2023-06-10T09:36:12;6.57;;;3.10;;
39740;SDS011;25426;53.478;10.190;2023-06-10T09:38:56;5.50;;;3.47;;
39740;SDS011;25426;53.478;10.190;2023-06-10T09:41:33;8.35;;;3.60;;
39740;SDS011;25426;53.478;10.190;2023-06-10T09:44:15;5.57;;;3.17;;
39740;SDS011;25426;53.478;10.190;2023-06-10T09:46:51;5.28;;;3.22;;
39740;SDS011;25426;53.478;10.190;2023-06-10T09:49:24;4.82;;;3.05;;
39740;SDS011;25426;53.478;10.190;2023-06-10T09:51:59;5.95;;;3.55;;
39740;SDS011;25426;53.478;10.190;2023-06-10T09:54:31;7.30;;;3.20;;
39740;SDS011;25426;53.478;10.190;2023-06-10T09:57:06;7.80;;;3.40;;
39740;SDS011;25426;53.478;10.190;2023-06-10T09:59:39;6.03;;;3.13;;
39740;SDS011;25426;53.478;10.190;2023-06-10T10:02:15;4.50;;;3.00;;
39740;SDS011;25426;53.478;10.190;2023-06-10T10:04:46;6.03;;;3.25;;
39740;SDS011;25426;53.478;10.190;2023-06-10T10:07:17;5.28;;;3.20;;
39740;SDS011;25426;53.478;10.190;2023-06-10T10:09:48;6.13;;;3.85;;
39740;SDS011;25426;53.478;10.190;2023-06-10T10:12:20;6.35;;;3.75;;
39740;SDS011;25426;53.478;10.190;2023-06-10T10:14:51;6.15;;;2.88;;
39740;SDS011;25426;53.478;10.190;2023-06-10T10:17:23;5.10;;;3.38;;
39740;SDS011;25426;53.478;10.190;2023-06-10T10:19:58;5.47;;;3.55;;
39740;SDS011;25426;53.478;10.190;2023-06-10T10:22:37;6.10;;;3.50;;
39740;SDS011;25426;53.478;10.190;2023-06-10T10:25:10;4.85;;;3.38;;
39740;SDS011;25426;53.478;10.190;2023-06-10T10:27:55;4.75;;;3.42;;
39740;SDS011;25426;53.478;10.190;2023-06-10T10:33:20;9.23;;;3.83;;
39740;SDS011;25426;53.478;10.190;2023-06-10T10:35:59;7.50;;;3.60;;
39740;SDS011;25426;53.478;10.190;2023-06-10T10:38:31;7.72;;;4.40;;
39740;SDS011;25426;53.478;10.190;2023-06-10T10:41:02;7.68;;;4.10;;
39740;SDS011;25426;53.478;10.190;2023-06-10T10:43:34;6.40;;;3.88;;
39740;SDS011;25426;53.478;10.190;2023-06-10T10:46:12;5.90;;;3.38;;
39740;SDS011;25426;53.478;10.190;2023-06-10T10:48:47;7.63;;;4.18;;
39740;SDS011;25426;53.478;10.190;2023-06-10T10:51:24;6.13;;;3.92;;
39740;SDS011;25426;53.478;10.190;2023-06-10T10:54:13;6.93;;;3.90;;
39740;SDS011;25426;53.478;10.190;2023-06-10T10:57:30;6.50;;;3.50;;
39740;SDS011;25426;53.478;10.190;2023-06-10T11:02:41;7.57;;;4.63;;
39740;SDS011;25426;53.478;10.190;2023-06-10T11:05:16;7.43;;;3.83;;
39740;SDS011;25426;53.478;10.190;2023-06-10T11:07:54;8.25;;;4.22;;
39740;SDS011;25426;53.478;10.190;2023-06-10T11:10:32;6.47;;;3.92;;
39740;SDS011;25426;53.478;10.190;2023-06-10T11:13:15;6.45;;;3.85;;
39740;SDS011;25426;53.478;10.190;2023-06-10T11:15:50;5.65;;;3.88;;
39740;SDS011;25426;53.478;10.190;2023-06-10T11:18:28;5.80;;;4.63;;
39740;SDS011;25426;53.478;10.190;2023-06-10T11:21:01;12.93;;;4.90;;
39740;SDS011;25426;53.478;10.190;2023-06-10T11:23:38;7.65;;;4.85;;
39740;SDS011;25426;53.478;10.190;2023-06-10T11:29:05;8.07;;;4.32;;
39740;SDS011;25426;53.478;10.190;2023-06-10T11:31:42;9.23;;;4.88;;
39740;SDS011;25426;53.478;10.190;2023-06-10T11:34:20;7.15;;;5.07;;
39740;SDS011;25426;53.478;10.190;2023-06-10T11:36:54;6.90;;;4.80;;
39740;SDS011;25426;53.478;10.190;2023-06-10T11:39:27;8.43;;;4.78;;
39740;SDS011;25426;53.478;10.190;2023-06-10T11:41:59;6.85;;;4.30;;
39740;SDS011;25426;53.478;10.190;2023-06-10T11:44:30;7.22;;;4.35;;
39740;SDS011;25426;53.478;10.190;2023-06-10T11:47:03;7.07;;;4.18;;
39740;SDS011;25426;53.478;10.190;2023-06-10T11:49:35;10.30;;;4.38;;
39740;SDS011;25426;53.478;10.190;2023-06-10T11:52:06;6.05;;;4.38;;
39740;SDS011;25426;53.478;10.190;2023-06-10T11:54:37;7.78;;;4.88;;
39740;SDS011;25426;53.478;10.190;2023-06-10T11:57:08;8.05;;;4.63;;
39740;SDS011;25426;53.478;10.190;2023-06-10T11:59:40;7.78;;;4.57;;
39740;SDS011;25426;53.478;10.190;2023-06-10T12:02:14;6.05;;;4.32;;
39740;SDS011;25426;53.478;10.190;2023-06-10T12:04:46;6.85;;;4.50;;
39740;SDS011;25426;53.478;10.190;2023-06-10T12:07:18;10.32;;;4.88;;
39740;SDS011;25426;53.478;10.190;2023-06-10T12:09:58;9.23;;;4.93;;
39740;SDS011;25426;53.478;10.190;2023-06-10T12:12:30;6.35;;;4.57;;
39740;SDS011;25426;53.478;10.190;2023-06-10T12:15:01;6.93;;;4.75;;
39740;SDS011;25426;53.478;10.190;2023-06-10T12:17:36;6.38;;;4.72;;
39740;SDS011;25426;53.478;10.190;2023-06-10T12:20:08;8.18;;;4.47;;
39740;SDS011;25426;53.478;10.190;2023-06-10T12:22:58;7.38;;;4.50;;
39740;SDS011;25426;53.478;10.190;2023-06-10T12:25:31;5.78;;;4.75;;
39740;SDS011;25426;53.478;10.190;2023-06-10T12:28:02;7.57;;;5.60;;
39740;SDS011;25426;53.478;10.190;2023-06-10T12:30:33;8.07;;;5.25;;
39740;SDS011;25426;53.478;10.190;2023-06-10T12:33:04;5.95;;;4.45;;
39740;SDS011;25426;53.478;10.190;2023-06-10T12:35:51;6.43;;;4.20;;
39740;SDS011;25426;53.478;10.190;2023-06-10T12:38:25;5.18;;;4.55;;
39740;SDS011;25426;53.478;10.190;2023-06-10T12:41:02;6.32;;;4.00;;
39740;SDS011;25426;53.478;10.190;2023-06-10T12:43:37;8.13;;;5.07;;
39740;SDS011;25426;53.478;10.190;2023-06-10T12:46:10;5.38;;;4.50;;
39740;SDS011;25426;53.478;10.190;2023-06-10T12:49:00;10.48;;;5.35;;
39740;SDS011;25426;53.478;10.190;2023-06-10T12:51:30;9.55;;;4.72;;
39740;SDS011;25426;53.478;10.190;2023-06-10T12:54:01;6.88;;;5.05;;
39740;SDS011;25426;53.478;10.190;2023-06-10T12:56:32;5.30;;;4.60;;
39740;SDS011;25426;53.478;10.190;2023-06-10T12:59:03;9.02;;;4.93;;
39740;SDS011;25426;53.478;10.190;2023-06-10T13:01:34;10.75;;;4.78;;
39740;SDS011;25426;53.478;10.190;2023-06-10T13:04:07;8.57;;;4.30;;
39740;SDS011;25426;53.478;10.190;2023-06-10T13:06:37;6.55;;;4.75;;
39740;SDS011;25426;53.478;10.190;2023-06-10T13:09:09;8.23;;;4.97;;
39740;SDS011;25426;53.478;10.190;2023-06-10T13:11:40;6.80;;;4.82;;
39740;SDS011;25426;53.478;10.190;2023-06-10T13:14:12;7.18;;;5.15;;
39740;SDS011;25426;53.478;10.190;2023-06-10T13:16:43;6.43;;;5.10;;
39740;SDS011;25426;53.478;10.190;2023-06-10T13:19:14;9.80;;;5.00;;
39740;SDS011;25426;53.478;10.190;2023-06-10T13:21:46;11.35;;;4.85;;
39740;SDS011;25426;53.478;10.190;2023-06-10T13:24:18;6.10;;;4.78;;
39740;SDS011;25426;53.478;10.190;2023-06-10T13:26:50;5.25;;;4.70;;
39740;SDS011;25426;53.478;10.190;2023-06-10T13:29:21;7.35;;;4.53;;
39740;SDS011;25426;53.478;10.190;2023-06-10T13:31:52;10.35;;;5.13;;
39740;SDS011;25426;53.478;10.190;2023-06-10T13:34:22;7.18;;;4.85;;
39740;SDS011;25426;53.478;10.190;2023-06-10T13:36:53;8.30;;;5.00;;
39740;SDS011;25426;53.478;10.190;2023-06-10T13:39:24;8.57;;;4.95;;
39740;SDS011;25426;53.478;10.190;2023-06-10T13:41:55;6.45;;;4.93;;
39740;SDS011;25426;53.478;10.190;2023-06-10T13:44:26;7.65;;;4.85;;
39740;SDS011;25426;53.478;10.190;2023-06-10T13:47:00;6.28;;;4.88;;
39740;SDS011;25426;53.478;10.190;2023-06-10T13:49:32;10.68;;;5.03;;
39740;SDS011;25426;53.478;10.190;2023-06-10T13:52:03;5.32;;;4.60;;
39740;SDS011;25426;53.478;10.190;2023-06-10T13:54:35;7.07;;;4.93;;
39740;SDS011;25426;53.478;10.190;2023-06-10T13:57:06;6.22;;;4.57;;
39740;SDS011;25426;53.478;10.190;2023-06-10T13:59:40;8.05;;;4.05;;
39740;SDS011;25426;53.478;10.190;2023-06-10T14:02:11;12.63;;;3.92;;
39740;SDS011;25426;53.478;10.190;2023-06-10T14:04:42;8.38;;;4.05;;
39740;SDS011;25426;53.478;10.190;2023-06-10T14:07:13;8.90;;;4.47;;
39740;SDS011;25426;53.478;10.190;2023-06-10T14:09:44;7.90;;;3.85;;
39740;SDS011;25426;53.478;10.190;2023-06-10T14:12:15;6.78;;;4.00;;
39740;SDS011;25426;53.478;10.190;2023-06-10T14:14:46;11.15;;;4.63;;
39740;SDS011;25426;53.478;10.190;2023-06-10T14:17:17;7.82;;;3.75;;
39740;SDS011;25426;53.478;10.190;2023-06-10T14:19:48;4.97;;;3.42;;
39740;SDS011;25426;53.478;10.190;2023-06-10T14:22:18;8.75;;;4.05;;
39740;SDS011;25426;53.478;10.190;2023-06-10T14:24:49;6.80;;;3.65;;
39740;SDS011;25426;53.478;10.190;2023-06-10T14:27:20;4.55;;;3.13;;
39740;SDS011;25426;53.478;10.190;2023-06-10T14:29:51;11.55;;;4.03;;
39740;SDS011;25426;53.478;10.190;2023-06-10T14:32:22;10.48;;;3.92;;
39740;SDS011;25426;53.478;10.190;2023-06-10T14:34:53;9.85;;;4.00;;
39740;SDS011;25426;53.478;10.190;2023-06-10T14:37:24;5.72;;;3.40;;
39740;SDS011;25426;53.478;10.190;2023-06-10T14:39:55;5.47;;;3.63;;
39740;SDS011;25426;53.478;10.190;2023-06-10T14:42:26;9.02;;;3.90;;
39740;SDS011;25426;53.478;10.190;2023-06-10T14:44:57;8.15;;;3.78;;
39740;SDS011;25426;53.478;10.190;2023-06-10T14:47:28;9.65;;;3.75;;
39740;SDS011;25426;53.478;10.190;2023-06-10T14:49:59;11.00;;;4.05;;
39740;SDS011;25426;53.478;10.190;2023-06-10T14:52:30;6.82;;;3.47;;
39740;SDS011;25426;53.478;10.190;2023-06-10T14:55:01;7.93;;;3.60;;
39740;SDS011;25426;53.478;10.190;2023-06-10T14:57:32;10.90;;;3.80;;
39740;SDS011;25426;53.478;10.190;2023-06-10T15:00:03;9.95;;;3.90;;
39740;SDS011;25426;53.478;10.190;2023-06-10T15:02:35;5.90;;;3.70;;
39740;SDS011;25426;53.478;10.190;2023-06-10T15:05:06;12.60;;;3.50;;
39740;SDS011;25426;53.478;10.190;2023-06-10T15:07:37;5.78;;;3.75;;
39740;SDS011;25426;53.478;10.190;2023-06-10T15:10:09;11.63;;;4.07;;
39740;SDS011;25426;53.478;10.190;2023-06-10T15:12:40;9.73;;;4.45;;
39740;SDS011;25426;53.478;10.190;2023-06-10T15:15:11;8.90;;;3.47;;
39740;SDS011;25426;53.478;10.190;2023-06-10T15:17:41;7.90;;;3.92;;